Time;durP1;ratioP1;P1;durP2;ratioP2;P2;SDS_P1;SDS_P2;PMS_P1;PMS_P2;Temp;Humidity;BMP_temperature;BMP_pressure;BME280_temperature;BME280_humidity;BME280_pressure;Samples;Min_cycle;Max_cycle;Signal;HPM_P1;HPM_P2
2022/04/25 00:05:02;;;;;;;9.30;7.80;;;;;;;8.33;77.09;98583.90;214413;1274;139837;-70
2022/04/25 00:10:05;;;;;;;6.50;5.90;;;;;;;8.28;76.78;98581.81;213698;1275;143291;-69
2022/04/25 00:15:08;;;;;;;12.80;5.70;;;;;;;8.24;77.02;98586.35;213695;1274;151625;-71
2022/04/25 00:20:11;;;;;;;6.60;5.30;;;;;;;8.19;77.27;98585.70;213917;1277;140593;-66
2022/04/25 00:25:14;;;;;;;5.10;4.50;;;;;;;8.14;77.30;98583.50;213254;1276;141153;-65
2022/04/25 00:30:16;;;;;;;8.10;6.60;;;;;;;8.10;77.73;98581.80;214743;1276;140737;-66
2022/04/25 00:35:18;;;;;;;7.50;5.40;;;;;;;8.07;77.27;98580.49;213865;1274;141737;-65
2022/04/25 00:40:22;;;;;;;5.60;5.10;;;;;;;8.04;77.80;98576.05;215166;1274;141456;-66
2022/04/25 00:45:24;;;;;;;5.10;4.60;;;;;;;8.00;77.58;98578.17;213610;1274;142244;-68
2022/04/25 00:50:28;;;;;;;5.00;4.50;;;;;;;7.96;77.50;98579.23;213800;1274;140501;-67
2022/04/25 00:55:31;;;;;;;5.60;4.40;;;;;;;7.93;78.17;98577.25;213530;1274;139977;-70
2022/04/25 01:00:36;;;;;;;5.10;4.60;;;;;;;7.90;77.96;98573.92;214297;1274;141022;-68
2022/04/25 01:05:39;;;;;;;4.50;4.00;;;;;;;7.86;78.39;98574.23;215000;1274;140852;-67
2022/04/25 01:10:43;;;;;;;5.10;4.70;;;;;;;7.84;78.30;98572.88;215653;1274;141536;-73
2022/04/25 01:15:45;;;;;;;4.10;3.70;;;;;;;7.83;78.21;98576.78;216296;1274;139957;-71
2022/04/25 01:20:48;;;;;;;4.10;3.50;;;;;;;7.85;78.13;98573.73;215750;1274;141427;-69
2022/04/25 01:31:12;;;;;;;6.30;4.40;;;;;;;7.86;78.40;98561.61;215878;1274;140619;-69
2022/04/25 01:36:15;;;;;;;5.40;4.90;;;;;;;7.88;78.45;98562.48;216140;1274;141092;-67
2022/04/25 01:41:18;;;;;;;5.00;4.10;;;;;;;7.89;78.39;98561.23;215431;1274;141608;-66
2022/04/25 01:46:21;;;;;;;9.40;5.50;;;;;;;7.92;78.20;98559.46;214758;1275;140618;-65
2022/04/25 01:51:25;;;;;;;6.70;4.80;;;;;;;7.91;78.58;98555.99;214215;1274;139469;-65
2022/04/25 01:56:28;;;;;;;5.70;5.10;;;;;;;7.90;78.35;98558.89;213656;1274;141376;-66
2022/04/25 02:01:30;;;;;;;3.80;3.50;;;;;;;7.89;78.58;98560.84;213255;1274;141218;-66
2022/04/25 02:06:34;;;;;;;6.00;4.40;;;;;;;7.86;78.65;98561.98;214374;1274;141831;-66
2022/04/25 02:11:39;;;;;;;5.60;4.90;;;;;;;7.84;78.96;98562.52;213469;1274;142457;-65
2022/04/25 02:16:42;;;;;;;6.60;5.40;;;;;;;7.83;78.71;98566.65;213971;1275;141540;-65
2022/04/25 02:21:46;;;;;;;6.40;5.80;;;;;;;7.83;78.94;98564.21;213425;1274;141353;-67
2022/04/25 02:26:50;;;;;;;5.70;4.20;;;;;;;7.78;79.12;98561.71;214099;1274;141160;-64
2022/04/25 02:31:53;;;;;;;7.50;5.90;;;;;;;7.77;78.87;98564.92;214154;1274;142922;-67
2022/04/25 02:36:57;;;;;;;6.90;5.20;;;;;;;7.76;79.25;98562.64;214811;1273;142631;-67
2022/04/25 02:42:00;;;;;;;5.50;5.00;;;;;;;7.76;79.08;98564.55;213817;1274;145138;-67
2022/04/25 02:47:03;;;;;;;6.70;5.30;;;;;;;7.75;79.22;98565.80;213547;1274;140638;-66
2022/04/25 02:52:06;;;;;;;6.80;5.10;;;;;;;7.73;79.23;98560.05;213528;1277;140907;-65
2022/04/25 02:57:08;;;;;;;4.70;4.20;;;;;;;7.72;79.56;98565.70;214210;1274;141295;-67
2022/04/25 03:02:11;;;;;;;5.80;5.30;;;;;;;7.71;79.65;98567.87;214022;1274;140744;-66
2022/04/25 03:07:14;;;;;;;6.00;5.10;;;;;;;7.70;79.28;98567.52;215912;1274;140003;-65
2022/04/25 03:12:18;;;;;;;6.80;6.10;;;;;;;7.71;79.50;98571.90;216017;1274;141011;-65
2022/04/25 03:17:21;;;;;;;7.90;6.80;;;;;;;7.71;79.81;98567.44;215545;1274;141321;-68
2022/04/25 03:22:24;;;;;;;6.90;6.20;;;;;;;7.71;79.27;98572.06;216352;1274;141579;-69
2022/04/25 03:27:27;;;;;;;5.80;5.20;;;;;;;7.69;79.61;98573.94;213946;1274;140607;-68
2022/04/25 03:32:29;;;;;;;9.30;6.10;;;;;;;7.70;79.84;98576.75;215014;1274;140895;-69
2022/04/25 03:37:34;;;;;;;7.30;5.80;;;;;;;7.73;79.76;98581.69;213869;1274;141917;-66
2022/04/25 03:42:39;;;;;;;7.20;6.50;;;;;;;7.75;80.05;98592.01;215337;1274;140624;-68
2022/04/25 03:47:43;;;;;;;9.90;8.90;;;;;;;7.76;79.67;98595.15;214600;1274;140452;-67
2022/04/25 03:52:47;;;;;;;7.40;6.00;;;;;;;7.79;79.89;98598.59;214543;1274;140150;-70
2022/04/25 03:57:50;;;;;;;10.30;6.60;;;;;;;7.80;79.75;98605.60;213452;1274;141305;-69
2022/04/25 04:02:52;;;;;;;7.20;6.40;;;;;;;7.81;79.73;98611.66;213430;1274;142855;-68
2022/04/25 04:07:55;;;;;;;8.30;6.40;;;;;;;7.80;79.85;98615.11;213519;1274;142505;-72
2022/04/25 04:13:01;;;;;;;8.60;6.50;;;;;;;7.80;79.87;98623.91;213002;1275;142366;-66
2022/04/25 04:18:04;;;;;;;7.10;6.50;;;;;;;7.80;79.61;98629.11;214809;1274;140700;-66
2022/04/25 04:23:09;;;;;;;5.80;5.10;;;;;;;7.80;79.88;98634.16;214384;1274;139717;-68
2022/04/25 04:28:11;;;;;;;8.50;6.00;;;;;;;7.81;79.87;98636.50;214316;1274;140486;-66
2022/04/25 04:33:14;;;;;;;11.80;7.70;;;;;;;7.84;80.12;98646.15;213724;1276;141932;-68
2022/04/25 04:38:17;;;;;;;7.10;6.10;;;;;;;7.83;80.18;98642.91;213556;1277;140936;-66
2022/04/25 04:43:21;;;;;;;7.00;6.10;;;;;;;7.80;79.83;98648.05;213744;1274;140422;-66
2022/04/25 04:48:24;;;;;;;9.50;6.20;;;;;;;7.77;79.80;98656.66;215326;1273;233266;-66
2022/04/25 04:53:26;;;;;;;5.10;4.60;;;;;;;7.78;80.07;98665.43;213697;1274;142335;-65
2022/04/25 04:58:28;;;;;;;7.60;5.80;;;;;;;7.80;80.20;98671.34;214512;1274;143031;-66
2022/04/25 05:03:31;;;;;;;6.40;5.70;;;;;;;7.81;80.11;98678.05;213701;1274;140869;-65
2022/04/25 05:08:34;;;;;;;12.10;10.90;;;;;;;7.79;80.33;98678.91;214968;1274;139724;-66
2022/04/25 05:13:37;;;;;;;10.40;6.10;;;;;;;7.81;80.17;98676.71;216306;1274;140857;-67
2022/04/25 05:18:40;;;;;;;9.00;6.40;;;;;;;7.84;80.38;98674.85;216026;1274;142263;-71
2022/04/25 05:23:42;;;;;;;8.20;6.80;;;;;;;7.88;80.40;98678.79;216127;1273;139953;-70
2022/04/25 05:28:46;;;;;;;6.50;5.80;;;;;;;7.93;80.15;98679.94;215354;1274;209867;-70
2022/04/25 05:33:48;;;;;;;5.40;4.70;;;;;;;7.99;80.45;98678.89;214160;1275;140195;-71
2022/04/25 05:38:51;;;;;;;8.00;6.40;;;;;;;7.99;80.11;98681.66;214394;1275;139750;-70
2022/04/25 05:43:54;;;;;;;7.20;5.90;;;;;;;7.98;80.66;98680.95;214460;1273;139650;-72
2022/04/25 05:54:18;;;;;;;5.40;4.90;;;;;;;8.01;80.22;98691.83;213524;1273;236147;-65
2022/04/25 05:59:21;;;;;;;7.30;5.60;;;;;;;8.00;80.24;98691.06;213535;1273;141574;-66
2022/04/25 06:04:24;;;;;;;8.50;5.20;;;;;;;8.01;80.91;98696.86;214494;1274;140766;-67
2022/04/25 06:09:32;;;;;;;6.60;4.50;;;;;;;8.03;80.66;98700.66;213820;1274;141552;-67
2022/04/25 06:14:38;;;;;;;6.40;5.80;;;;;;;8.05;80.55;98701.48;214012;1274;140752;-67
2022/04/25 06:19:42;;;;;;;6.10;5.00;;;;;;;8.07;80.67;98704.86;213925;1274;141182;-67
2022/04/25 06:24:45;;;;;;;5.90;4.60;;;;;;;8.09;80.73;98702.19;214565;1274;141028;-65
2022/04/25 06:29:48;;;;;;;7.20;5.90;;;;;;;8.13;80.79;98708.77;213398;1274;141462;-70
2022/04/25 06:34:52;;;;;;;6.00;5.00;;;;;;;8.16;80.73;98711.27;213945;1273;141594;-66
2022/04/25 06:39:55;;;;;;;7.20;6.10;;;;;;;8.17;80.78;98714.42;214274;1273;141614;-70
2022/04/25 06:44:59;;;;;;;6.20;5.60;;;;;;;8.20;80.77;98711.27;214430;1274;141201;-69
2022/04/25 06:50:03;;;;;;;6.00;5.40;;;;;;;8.27;80.91;98711.57;214816;1272;141578;-68
2022/04/25 06:55:07;;;;;;;5.60;5.10;;;;;;;8.32;80.96;98712.72;214605;1275;140908;-67
2022/04/25 07:00:11;;;;;;;5.50;5.00;;;;;;;8.35;80.97;98718.62;215392;1273;141132;-73
2022/04/25 07:05:34;;;;;;;7.60;6.70;;;;;;;8.37;80.72;98720.86;215447;1274;140178;-70
2022/04/25 07:10:37;;;;;;;7.50;6.20;;;;;;;8.40;80.81;98726.91;216213;1274;141113;-73
2022/04/25 07:15:40;;;;;;;8.60;7.80;;;;;;;8.41;80.86;98729.58;216239;1274;140918;-71
2022/04/25 07:20:43;;;;;;;8.10;7.30;;;;;;;8.48;80.94;98731.70;215762;1274;141099;-67
2022/04/25 07:31:07;;;;;;;8.90;7.50;;;;;;;8.54;80.42;98740.45;213480;1274;141004;-69
2022/04/25 07:36:09;;;;;;;9.40;8.50;;;;;;;8.51;80.32;98742.21;214291;1274;141373;-67
2022/04/25 07:41:19;;;;;;;11.10;8.70;;;;;;;8.46;80.44;98753.99;215529;1275;140233;-69
2022/04/25 07:46:25;;;;;;;10.30;7.90;;;;;;;8.45;80.70;98759.02;213924;1274;774845;-68
2022/04/25 07:51:28;;;;;;;9.60;8.60;;;;;;;8.48;80.51;98761.35;215178;1273;140845;-69
2022/04/25 07:56:32;;;;;;;9.50;8.20;;;;;;;8.51;80.39;98764.31;214890;1272;142391;-69
2022/04/25 08:01:38;;;;;;;9.00;7.30;;;;;;;8.51;80.25;98770.59;213808;1274;237642;-67
2022/04/25 08:06:44;;;;;;;11.10;8.50;;;;;;;8.53;80.30;98778.84;214392;1274;141015;-70
2022/04/25 08:11:47;;;;;;;12.50;9.60;;;;;;;8.56;80.51;98786.48;214174;1274;140805;-69
2022/04/25 08:22:14;;;;;;;10.80;9.70;;;;;;;8.51;80.38;98802.02;213712;1274;140231;-69
2022/04/25 08:27:16;;;;;;;10.40;8.40;;;;;;;8.53;80.24;98806.14;214539;1274;140220;-68
2022/04/25 08:32:19;;;;;;;13.60;11.10;;;;;;;8.53;80.23;98814.59;212956;1274;140540;-66
2022/04/25 08:37:23;;;;;;;11.60;9.90;;;;;;;8.51;80.18;98814.84;214660;1274;141035;-73
2022/04/25 08:42:29;;;;;;;12.70;9.80;;;;;;;8.55;80.18;98822.16;214811;1274;140435;-71
2022/04/25 08:47:55;;;;;;;10.70;9.70;;;;;;;8.55;80.18;98827.86;215515;1275;140829;-74
2022/04/25 08:52:59;;;;;;;12.20;10.40;;;;;;;8.57;79.89;98831.90;213837;1274;141737;-71
2022/04/25 08:58:03;;;;;;;13.90;10.20;;;;;;;8.59;80.17;98840.05;215295;1274;140211;-69
2022/04/25 09:03:05;;;;;;;12.70;10.70;;;;;;;8.59;79.87;98845.36;215808;1274;140152;-70
2022/04/25 09:08:08;;;;;;;14.80;11.30;;;;;;;8.65;80.14;98847.11;214495;1274;141034;-70
2022/04/25 09:13:11;;;;;;;14.60;11.90;;;;;;;8.73;79.81;98846.71;216005;1273;141078;-69
2022/04/25 09:18:14;;;;;;;15.70;12.40;;;;;;;8.83;80.08;98847.33;216031;1274;141939;-70
2022/04/25 09:23:21;;;;;;;19.40;14.60;;;;;;;8.94;80.01;98854.05;215990;1274;140780;-72
2022/04/25 09:28:24;;;;;;;21.00;12.70;;;;;;;9.05;79.87;98860.27;215517;1274;141299;-72
2022/04/25 09:33:27;;;;;;;32.40;19.70;;;;;;;9.11;80.00;98862.59;214521;1274;142665;-70
2022/04/25 09:38:32;;;;;;;19.90;16.00;;;;;;;9.17;79.84;98867.76;215158;1275;140968;-69
2022/04/25 09:43:38;;;;;;;23.80;17.10;;;;;;;9.21;79.97;98870.25;216004;1274;141455;-68
2022/04/25 09:49:03;;;;;;;17.30;13.10;;;;;;;9.27;79.61;98876.13;213075;1274;144425;-74
2022/04/25 09:54:07;;;;;;;19.30;15.40;;;;;;;9.33;79.79;98888.98;214302;1274;141398;-71
2022/04/25 09:59:10;;;;;;;22.50;16.00;;;;;;;9.39;79.88;98890.43;214122;1276;140845;-72
2022/04/25 10:04:36;;;;;;;25.40;18.10;;;;;;;9.37;79.81;98891.80;214186;1274;142692;-69
2022/04/25 10:09:40;;;;;;;26.20;18.70;;;;;;;9.39;80.02;98894.02;213914;1274;141664;-69
2022/04/25 10:14:43;;;;;;;22.80;16.20;;;;;;;9.46;80.00;98896.86;214244;1275;141678;-68
2022/04/25 10:19:47;;;;;;;31.70;21.20;;;;;;;9.50;79.71;98897.15;213964;1274;142293;-70
2022/04/25 10:24:49;;;;;;;28.20;18.60;;;;;;;9.58;79.76;98898.68;213084;1273;141383;-70
2022/04/25 10:29:56;;;;;;;29.80;19.80;;;;;;;9.70;79.94;98900.80;213519;1274;141371;-70
2022/04/25 10:35:02;;;;;;;;;;;;;;;9.74;79.99;98899.85;212884;1274;142484;-70
2022/04/25 10:40:11;;;;;;;22.70;18.10;;;;;;;9.72;80.04;98905.52;214583;1274;128867;-70
2022/04/25 10:45:14;;;;;;;21.40;16.50;;;;;;;9.64;79.63;98914.79;213069;1274;142817;-70
2022/04/25 10:50:17;;;;;;;21.00;13.90;;;;;;;9.62;79.84;98917.58;215036;1276;142286;-71
2022/04/25 10:55:35;;;;;;;22.60;17.00;;;;;;;9.58;79.76;98920.13;214058;1275;142836;-70
2022/04/25 11:00:41;;;;;;;29.50;18.80;;;;;;;9.59;79.98;98923.60;214158;1277;142961;-71
2022/04/25 11:05:45;;;;;;;22.30;16.50;;;;;;;9.56;79.97;98929.90;215410;1276;141760;-73
2022/04/25 11:10:49;;;;;;;23.00;17.20;;;;;;;9.53;80.01;98934.80;216021;1274;141206;-68
2022/04/25 11:16:18;;;;;;;26.20;17.30;;;;;;;9.57;79.92;98938.89;214892;1274;141663;-71
2022/04/25 11:21:32;;;;;;;20.30;15.20;;;;;;;9.58;79.81;98944.50;214162;1274;141567;-74
2022/04/25 11:26:36;;;;;;;19.50;15.60;;;;;;;9.58;79.92;98948.08;215744;1274;141537;-69
2022/04/25 11:31:40;;;;;;;16.40;13.20;;;;;;;9.62;79.83;98950.52;215067;1274;140840;-71
2022/04/25 11:36:44;;;;;;;16.20;12.20;;;;;;;9.66;80.01;98961.17;214487;1275;140987;-70
2022/04/25 11:41:47;;;;;;;12.10;9.90;;;;;;;9.71;79.80;98965.00;213287;1274;140607;-69
2022/04/25 11:46:53;;;;;;;13.60;10.20;;;;;;;9.76;79.78;98964.70;214729;1274;140094;-71
2022/04/25 11:52:00;;;;;;;14.80;13.10;;;;;;;9.78;79.84;98967.64;213094;1276;141845;-70
2022/04/25 11:57:04;;;;;;;13.80;11.10;;;;;;;9.82;79.92;98969.54;214072;1274;141249;-71
2022/04/25 12:02:07;;;;;;;12.80;8.90;;;;;;;9.80;79.49;98975.96;213271;1274;141727;-73
2022/04/25 12:07:12;;;;;;;12.10;9.90;;;;;;;9.75;79.75;98981.84;214780;1274;140454;-72
2022/04/25 12:17:53;;;;;;;11.50;9.30;;;;;;;9.84;79.86;98989.64;213244;1274;141563;-69
2022/04/25 12:22:58;;;;;;;18.00;12.20;;;;;;;9.82;79.60;98994.73;213725;1274;142653;-71
2022/04/25 12:28:07;;;;;;;14.00;10.50;;;;;;;9.82;79.56;98992.80;213372;1274;141754;-70
2022/04/25 12:33:16;;;;;;;27.30;18.80;;;;;;;9.85;79.56;98999.38;212846;1274;142071;-70
2022/04/25 12:38:38;;;;;;;26.70;17.20;;;;;;;9.79;79.44;99002.63;214238;1274;141975;-71
2022/04/25 12:43:44;;;;;;;29.40;20.00;;;;;;;9.75;79.52;99006.80;213584;1274;144111;-70
2022/04/25 12:49:03;;;;;;;28.90;20.10;;;;;;;9.77;79.51;99003.41;214536;1274;141849;-70
2022/04/25 12:54:30;;;;;;;27.00;18.70;;;;;;;9.72;79.35;99008.88;213333;1274;141847;-71
2022/04/25 12:59:35;;;;;;;;;;;;;;;9.62;79.51;99016.41;215795;1274;142375;-73
2022/04/25 13:04:55;;;;;;;21.80;18.00;;;;;;;9.55;79.43;99015.83;216738;1274;127691;-68
2022/04/25 13:10:00;;;;;;;22.30;16.90;;;;;;;9.62;79.65;99023.74;216021;1274;142055;-73
2022/04/25 13:15:06;;;;;;;30.90;20.40;;;;;;;9.66;79.50;99030.99;214141;1274;162466;-70
2022/04/25 13:20:14;;;;;;;22.00;16.40;;;;;;;9.61;79.40;99030.60;214018;1274;141868;-71
2022/04/25 13:25:20;;;;;;;23.90;16.30;;;;;;;9.52;79.31;99034.52;214865;1274;142076;-71
2022/04/25 13:30:26;;;;;;;23.40;15.20;;;;;;;9.43;79.54;99036.73;213038;1274;141952;-69
2022/04/25 13:35:31;;;;;;;16.00;13.10;;;;;;;9.32;79.41;99043.64;213398;1275;141449;-68
2022/04/25 13:40:34;;;;;;;18.60;13.20;;;;;;;9.29;79.70;99050.79;213547;1274;141709;-70
2022/04/25 13:45:38;;;;;;;13.20;11.90;;;;;;;9.33;79.81;99051.31;212965;1275;141934;-69
2022/04/25 13:50:41;;;;;;;14.50;11.70;;;;;;;9.36;80.07;99060.84;214449;1274;141573;-71
2022/04/25 13:55:46;;;;;;;14.00;11.60;;;;;;;9.37;79.98;99066.65;213726;1276;142269;-70
2022/04/25 14:00:49;;;;;;;17.20;13.40;;;;;;;9.33;79.93;99072.06;213312;1274;141756;-70
2022/04/25 14:05:52;;;;;;;17.10;13.50;;;;;;;9.31;79.96;99076.12;213491;1276;141437;-71
2022/04/25 14:10:55;;;;;;;17.50;13.30;;;;;;;9.33;79.68;99089.73;213356;1276;141764;-70
2022/04/25 14:15:58;;;;;;;12.30;11.00;;;;;;;9.29;79.73;99092.37;213072;1276;141985;-70
2022/04/25 14:21:01;;;;;;;17.30;12.50;;;;;;;9.26;79.30;99096.48;214416;1274;141050;-70
2022/04/25 14:26:05;;;;;;;13.80;10.80;;;;;;;9.21;79.40;99099.20;213809;1274;141239;-66
2022/04/25 14:31:07;;;;;;;17.30;11.70;;;;;;;9.17;79.51;99102.02;214009;1274;140802;-70
2022/04/25 14:36:11;;;;;;;17.60;13.30;;;;;;;9.18;79.57;99109.73;214551;1274;140244;-71
2022/04/25 14:41:15;;;;;;;17.40;11.90;;;;;;;9.20;79.58;99111.36;214277;1274;141326;-70
2022/04/25 14:46:18;;;;;;;20.80;12.20;;;;;;;9.18;79.51;99121.34;213524;1275;140898;-71
2022/04/25 14:56:42;;;;;;;19.60;14.30;;;;;;;9.07;79.17;99121.44;214235;1274;141326;-66
2022/04/25 15:01:45;;;;;;;19.70;14.40;;;;;;;9.06;79.62;99124.08;215923;1274;141112;-73
2022/04/25 15:06:48;;;;;;;20.80;14.80;;;;;;;9.12;79.56;99125.76;215613;1274;140718;-72
2022/04/25 15:11:51;;;;;;;27.10;17.10;;;;;;;9.10;78.95;99134.30;214455;1275;143423;-70
2022/04/25 15:16:57;;;;;;;26.20;18.40;;;;;;;9.12;79.44;99142.58;215539;1276;140558;-71
2022/04/25 15:21:59;;;;;;;26.20;16.50;;;;;;;9.15;79.20;99149.49;213016;1275;142475;-70
2022/04/25 15:27:01;;;;;;;34.60;16.70;;;;;;;9.14;79.40;99158.35;214922;1274;140712;-71
2022/04/25 15:32:06;;;;;;;18.70;13.90;;;;;;;9.07;79.34;99165.73;214795;1274;141169;-69
2022/04/25 15:37:15;;;;;;;18.20;12.10;;;;;;;9.04;79.75;99170.18;214354;1275;140641;-69
2022/04/25 15:42:22;;;;;;;16.20;12.00;;;;;;;9.02;79.64;99173.49;213519;1276;142081;-69
2022/04/25 15:47:25;;;;;;;13.60;10.70;;;;;;;9.01;79.93;99172.46;212947;1276;140733;-70
2022/04/25 15:52:27;;;;;;;14.60;10.50;;;;;;;9.00;79.86;99177.66;215163;1274;140389;-68
2022/04/25 15:57:44;;;;;;;14.60;10.70;;;;;;;8.98;80.01;99183.56;213801;1276;140186;-70
2022/04/25 16:02:47;;;;;;;12.60;10.70;;;;;;;8.99;80.04;99184.55;213341;1276;140255;-69
2022/04/25 16:07:52;;;;;;;15.10;11.30;;;;;;;9.00;80.31;99189.15;214658;1274;141355;-68
2022/04/25 16:12:54;;;;;;;12.00;10.50;;;;;;;8.99;80.28;99188.65;214373;1274;140844;-70
2022/04/25 16:17:56;;;;;;;11.00;9.80;;;;;;;8.98;80.17;99188.19;213672;1275;141310;-69
2022/04/25 16:23:00;;;;;;;16.20;11.50;;;;;;;9.00;79.93;99190.67;213883;1274;140442;-69
2022/04/25 16:28:06;;;;;;;15.70;12.30;;;;;;;8.99;79.87;99196.30;214011;1276;143241;-69
2022/04/25 16:33:09;;;;;;;14.20;11.10;;;;;;;9.01;80.16;99203.14;213129;1274;141090;-71
2022/04/25 16:38:12;;;;;;;18.90;11.30;;;;;;;9.01;80.17;99204.56;213036;1275;141305;-69
2022/04/25 16:43:15;;;;;;;15.10;11.10;;;;;;;9.00;80.26;99206.21;214209;1275;152667;-69
2022/04/25 16:48:18;;;;;;;18.10;12.30;;;;;;;8.99;79.95;99211.83;215549;1274;141797;-69
2022/04/25 16:53:22;;;;;;;13.70;10.70;;;;;;;8.99;80.19;99212.89;214847;1274;143295;-69
2022/04/25 16:58:24;;;;;;;16.50;12.00;;;;;;;9.00;80.20;99215.04;215933;1274;143322;-73
2022/04/25 17:03:26;;;;;;;17.50;12.40;;;;;;;9.04;80.42;99221.44;215896;1274;140765;-71
2022/04/25 17:08:29;;;;;;;15.40;10.60;;;;;;;9.07;80.37;99227.34;215737;1274;142167;-71
2022/04/25 17:13:31;;;;;;;12.20;10.00;;;;;;;9.01;79.99;99236.42;216016;1274;141148;-71
2022/04/25 17:18:34;;;;;;;13.40;9.50;;;;;;;8.97;79.85;99239.52;214725;1274;142022;-70
2022/04/25 17:23:36;;;;;;;12.40;9.40;;;;;;;8.89;79.64;99245.82;214261;1274;141428;-71
2022/04/25 17:28:42;;;;;;;15.40;10.20;;;;;;;8.79;79.87;99249.88;213933;1274;141533;-70
